createdAt,value
2018-11-12T15:01:59.486Z,13.40
2018-11-12T15:04:26.646Z,14.40
2018-11-12T15:06:53.817Z,13.40
2018-11-12T15:09:20.954Z,14.20
2018-11-12T15:11:48.110Z,15.00
2018-11-12T15:14:15.258Z,14.37
2018-11-12T15:16:42.418Z,14.80
2018-11-12T15:19:09.667Z,13.83
2018-11-12T15:21:36.913Z,13.90
2018-11-12T15:24:04.307Z,13.70
2018-11-12T15:26:31.454Z,14.67
2018-11-12T15:28:59.160Z,14.73
2018-11-12T15:31:26.323Z,14.73
2018-11-12T15:33:53.471Z,15.03
2018-11-12T15:36:20.630Z,14.93
2018-11-12T15:38:47.807Z,14.63
2018-11-12T15:41:15.053Z,16.13
2018-11-12T15:43:42.306Z,15.47
2018-11-12T15:46:09.583Z,16.07
2018-11-12T15:48:36.739Z,14.93
2018-11-12T15:51:03.972Z,15.40
2018-11-12T15:53:31.074Z,14.77
2018-11-12T15:55:58.221Z,15.07
2018-11-12T15:58:25.416Z,15.07
2018-11-12T16:00:52.578Z,15.63
2018-11-12T16:03:19.726Z,15.00
2018-11-12T16:05:46.929Z,14.97
2018-11-12T16:08:14.018Z,13.83
2018-11-12T16:10:41.187Z,15.37
2018-11-12T16:13:08.335Z,14.70
2018-11-12T16:18:09.198Z,17.33
2018-11-12T16:20:36.371Z,16.30
2018-11-12T16:23:03.550Z,17.20
2018-11-12T16:25:30.747Z,16.23
2018-11-12T16:27:57.963Z,17.87
2018-11-12T16:30:25.151Z,17.50
2018-11-12T16:32:52.363Z,20.53
2018-11-12T16:35:20.578Z,20.73
2018-11-12T16:37:48.459Z,19.40
2018-11-12T16:40:15.668Z,14.97
2018-11-12T16:42:43.681Z,14.07
2018-11-12T16:45:11.555Z,13.80
2018-11-12T16:47:38.751Z,13.07
2018-11-12T16:50:06.530Z,13.40
2018-11-12T16:52:33.715Z,12.90
2018-11-12T16:55:00.862Z,13.07
2018-11-12T16:57:28.017Z,13.07
2018-11-12T16:59:55.166Z,13.20
2018-11-12T17:05:08.183Z,12.97
2018-11-12T17:07:35.423Z,12.17
2018-11-12T17:10:02.575Z,13.00
2018-11-12T17:12:29.734Z,12.63
2018-11-12T17:14:56.984Z,12.33
2018-11-12T17:17:24.247Z,14.47
2018-11-12T17:19:51.394Z,13.67
2018-11-12T17:22:18.559Z,13.63
2018-11-12T17:24:45.739Z,13.90
2018-11-12T17:27:13.027Z,15.10
2018-11-12T17:29:40.292Z,14.60
2018-11-12T17:32:07.498Z,13.37
2018-11-12T17:34:34.647Z,10.93
2018-11-12T17:37:01.810Z,10.93
2018-11-12T17:39:28.990Z,10.90
2018-11-12T17:41:56.239Z,10.03
2018-11-12T17:44:23.567Z,15.80
2018-11-12T17:46:50.910Z,11.07
2018-11-12T17:49:18.092Z,10.57
2018-11-12T17:51:45.342Z,10.50
2018-11-12T17:54:12.581Z,10.40
2018-11-12T17:56:39.689Z,11.47
2018-11-12T17:59:07.046Z,11.43
2018-11-12T18:01:34.258Z,10.80
2018-11-12T18:04:01.355Z,9.53
2018-11-12T18:06:28.494Z,9.43
2018-11-12T18:08:55.668Z,9.17
2018-11-12T18:11:22.802Z,9.30
2018-11-12T18:13:50.042Z,9.37
2018-11-12T18:16:17.122Z,8.83
2018-11-12T18:18:44.278Z,9.83
2018-11-12T18:21:11.431Z,10.70
2018-11-12T18:23:38.638Z,10.40
2018-11-12T18:26:05.795Z,9.70
2018-11-12T18:28:32.943Z,9.47
2018-11-12T18:31:00.219Z,9.67
2018-11-12T18:33:27.278Z,9.47
2018-11-12T18:35:54.403Z,9.20
2018-11-12T18:38:21.603Z,9.17
2018-11-12T18:40:48.740Z,8.50
2018-11-12T18:43:15.898Z,9.33
2018-11-12T18:45:43.037Z,8.53
2018-11-12T18:48:10.200Z,9.17
2018-11-12T18:50:37.357Z,9.00
2018-11-12T18:53:04.514Z,8.90
2018-11-12T18:55:31.661Z,9.40
2018-11-12T18:57:59.105Z,9.40
2018-11-12T19:00:26.755Z,9.77
2018-11-12T19:02:54.170Z,9.67
2018-11-12T19:05:22.787Z,9.40
2018-11-12T19:07:50.910Z,9.53
2018-11-12T19:10:20.446Z,9.83
2018-11-12T19:12:48.040Z,10.13
2018-11-12T19:15:16.355Z,10.30
2018-11-12T19:17:44.472Z,10.50
2018-11-12T19:20:11.626Z,10.03
2018-11-12T19:22:38.778Z,10.30
2018-11-12T19:25:06.861Z,10.30
2018-11-12T19:27:34.030Z,10.63
2018-11-12T19:30:01.197Z,10.30
2018-11-12T19:32:28.958Z,11.00
2018-11-12T19:34:56.139Z,9.60
2018-11-12T19:37:23.294Z,12.70
2018-11-12T19:39:50.478Z,15.47
2018-11-12T19:42:17.639Z,11.20
2018-11-12T19:44:44.790Z,9.83
2018-11-12T19:47:11.963Z,9.03
2018-11-12T19:49:39.122Z,10.60
2018-11-12T19:52:06.361Z,10.27
2018-11-12T19:54:33.548Z,11.40
2018-11-12T19:57:00.674Z,10.40
2018-11-12T19:59:27.826Z,10.77
2018-11-12T20:01:55.020Z,10.90
2018-11-12T20:04:22.175Z,10.70
2018-11-12T20:06:49.329Z,10.10
2018-11-12T20:09:16.535Z,10.63
2018-11-12T20:11:43.693Z,9.87
2018-11-12T20:14:10.839Z,9.53
2018-11-12T20:16:37.997Z,10.47
2018-11-12T20:19:05.143Z,9.80
2018-11-12T20:21:32.314Z,10.60
2018-11-12T20:23:59.531Z,9.60
2018-11-12T20:26:26.758Z,9.90
2018-11-12T20:28:53.927Z,10.23
2018-11-12T20:31:21.077Z,9.87
2018-11-12T20:33:48.238Z,10.47
2018-11-12T20:36:15.382Z,10.23
2018-11-12T20:38:42.578Z,10.23
2018-11-12T20:41:09.697Z,10.20
2018-11-12T20:43:36.845Z,10.13
2018-11-12T20:46:04.293Z,10.33
2018-11-12T20:48:31.438Z,10.80
2018-11-12T20:50:58.626Z,9.60
2018-11-12T20:53:25.779Z,10.80
2018-11-12T20:55:52.947Z,12.17
2018-11-12T20:58:20.138Z,10.63
2018-11-12T21:00:47.269Z,10.07
2018-11-12T21:03:14.430Z,9.50
2018-11-12T21:05:41.589Z,10.60
2018-11-12T21:08:08.759Z,10.03
2018-11-12T21:10:35.929Z,10.67
2018-11-12T21:13:03.071Z,10.57
2018-11-12T21:15:30.210Z,10.50
2018-11-12T21:17:57.385Z,10.33
2018-11-12T21:20:25.646Z,9.80
2018-11-12T21:22:52.970Z,11.10
2018-11-12T21:25:21.390Z,10.30
2018-11-12T21:27:48.550Z,10.60
2018-11-12T21:30:18.086Z,10.17
2018-11-12T21:32:45.510Z,10.60
2018-11-12T21:35:12.714Z,11.73
2018-11-12T21:37:39.907Z,12.60
2018-11-12T21:40:09.775Z,11.63
2018-11-12T21:42:36.954Z,12.07
2018-11-12T21:45:04.574Z,11.77
2018-11-12T21:47:31.719Z,11.00
2018-11-12T21:49:58.942Z,12.00
2018-11-12T21:52:26.043Z,12.30
2018-11-12T21:54:53.342Z,11.47
2018-11-12T21:57:20.519Z,11.97
2018-11-12T21:59:47.747Z,11.37
2018-11-12T22:02:14.834Z,11.60
2018-11-12T22:04:41.987Z,10.97
2018-11-12T22:07:09.145Z,11.47
2018-11-12T22:09:36.304Z,11.80
2018-11-12T22:12:03.482Z,11.60
2018-11-12T22:14:30.641Z,10.57
2018-11-12T22:16:57.778Z,11.80
2018-11-12T22:19:25.092Z,12.00
2018-11-12T22:21:52.117Z,11.37
2018-11-12T22:24:19.382Z,12.10
2018-11-12T22:26:46.578Z,11.00
2018-11-12T22:29:13.735Z,11.60
2018-11-12T22:31:40.899Z,12.00
2018-11-12T22:34:08.078Z,12.07
2018-11-12T22:36:35.273Z,11.50
2018-11-12T22:39:02.418Z,12.10
2018-11-12T22:41:29.566Z,11.83
2018-11-12T22:43:56.743Z,11.53
2018-11-12T22:46:23.906Z,12.23
2018-11-12T22:48:51.158Z,13.07
2018-11-12T22:51:18.305Z,13.30
2018-11-12T22:53:45.515Z,14.00
2018-11-12T22:56:12.645Z,12.60
2018-11-12T22:58:39.807Z,11.70
2018-11-12T23:01:06.981Z,12.93
2018-11-12T23:03:34.151Z,11.90
2018-11-12T23:06:06.806Z,12.90
2018-11-12T23:08:33.974Z,13.77
2018-11-12T23:11:01.181Z,13.33
2018-11-12T23:13:28.342Z,12.93
2018-11-12T23:15:55.489Z,13.10
2018-11-12T23:18:22.666Z,13.83
2018-11-12T23:20:49.826Z,12.53
2018-11-12T23:23:16.986Z,13.40
2018-11-12T23:25:44.194Z,11.97
2018-11-12T23:28:11.334Z,11.93
2018-11-12T23:30:38.508Z,12.47
2018-11-12T23:33:05.670Z,11.43
2018-11-12T23:35:32.840Z,11.47
2018-11-12T23:37:59.977Z,11.70
2018-11-12T23:40:27.126Z,11.10
2018-11-12T23:42:54.298Z,11.73
2018-11-12T23:45:21.469Z,11.10
2018-11-12T23:47:48.642Z,11.50
2018-11-12T23:50:17.032Z,12.83
2018-11-12T23:52:44.968Z,12.60
2018-11-12T23:55:12.487Z,12.40
2018-11-12T23:57:39.678Z,13.50
